Time;durP1;ratioP1;P1;durP2;ratioP2;P2;SDS_P1;SDS_P2;PMS_P1;PMS_P2;Temp;Humidity;BMP_temperature;BMP_pressure;BME280_temperature;BME280_humidity;BME280_pressure;Samples;Min_cycle;Max_cycle;Signal;HPM_P1;HPM_P2
2022/04/06 00:00:09;;;;;;;2.13;1.33;;;9.30;80.00;;;;;;5135477;27;20081;-76
2022/04/06 00:02:39;;;;;;;4.03;1.45;;;9.30;79.80;;;;;;5135293;27;20050;-76
2022/04/06 00:05:09;;;;;;;1.38;1.23;;;9.30;79.80;;;;;;5135306;27;20027;-78
2022/04/06 00:07:37;;;;;;;1.77;1.60;;;9.30;79.70;;;;;;5135308;27;20027;-77
2022/04/06 00:10:04;;;;;;;1.58;1.27;;;9.30;80.00;;;;;;5134954;27;20076;-77
2022/04/06 00:12:30;;;;;;;1.23;1.05;;;9.30;80.10;;;;;;5134534;27;20023;-76
2022/04/06 00:14:55;;;;;;;1.42;0.90;;;9.30;80.30;;;;;;5134607;27;20020;-77
2022/04/06 00:17:21;;;;;;;1.50;1.20;;;9.20;80.20;;;;;;5134281;27;20083;-75
2022/04/06 00:19:47;;;;;;;2.25;1.45;;;9.20;80.00;;;;;;5134374;27;20038;-75
2022/04/06 00:22:13;;;;;;;3.10;1.55;;;9.20;80.10;;;;;;5134363;27;20023;-74
2022/04/06 00:24:39;;;;;;;1.70;1.27;;;9.10;80.10;;;;;;5134391;27;20027;-74
2022/04/06 00:27:05;;;;;;;1.25;1.15;;;9.20;80.20;;;;;;5136396;27;20041;-75
2022/04/06 00:29:30;;;;;;;3.03;1.38;;;9.10;80.40;;;;;;5149289;27;20030;-74
2022/04/06 00:31:56;;;;;;;1.10;1.00;;;9.10;80.50;;;;;;5133822;27;20360;-74
2022/04/06 00:35:28;;;;;;;1.80;1.70;;;9.10;80.70;;;;;;5134061;27;20023;-75
2022/04/06 00:37:07;;;;;;;2.60;1.70;;;9.00;80.80;;;;;;5133871;27;20364;-76
2022/04/06 00:39:32;;;;;;;1.90;1.60;;;9.10;80.80;;;;;;5133973;27;20030;-76
2022/04/06 00:41:58;;;;;;;2.45;1.77;;;9.10;80.80;;;;;;5133882;27;20463;-75
2022/04/06 00:44:24;;;;;;;2.20;2.00;;;9.10;80.90;;;;;;5133808;27;20053;-76
2022/04/06 00:46:49;;;;;;;3.88;2.95;;;9.10;81.00;;;;;;5133537;27;20019;-76
2022/04/06 00:49:15;;;;;;;2.67;2.17;;;9.10;81.00;;;;;;5133808;27;20027;-76
2022/04/06 00:51:46;;;;;;;3.67;2.08;;;9.10;80.90;;;;;;5133774;27;20379;-76
2022/04/06 00:54:18;;;;;;;4.28;2.25;;;9.10;80.90;;;;;;5133858;27;20420;-76
2022/04/06 00:56:46;;;;;;;2.75;2.03;;;9.10;80.80;;;;;;5133625;27;20031;-76
2022/04/06 00:59:12;;;;;;;1.65;1.48;;;9.10;80.80;;;;;;5133639;27;20029;-75
2022/04/06 01:01:38;;;;;;;2.20;1.25;;;9.20;80.80;;;;;;5133723;27;20098;-75
2022/04/06 01:04:04;;;;;;;1.92;1.48;;;9.10;80.80;;;;;;5133564;27;20378;-76
2022/04/06 01:06:29;;;;;;;1.63;1.45;;;9.10;80.80;;;;;;5133554;27;20023;-75
2022/04/06 01:08:56;;;;;;;3.20;1.60;;;9.20;80.80;;;;;;5133487;27;20080;-75
2022/04/06 01:11:23;;;;;;;1.02;0.93;;;9.10;80.90;;;;;;5133438;27;20033;-75
2022/04/06 01:13:51;;;;;;;1.85;1.48;;;9.10;80.90;;;;;;5133336;27;20050;-75
2022/04/06 01:16:17;;;;;;;1.13;1.08;;;9.10;81.00;;;;;;5133238;27;20459;-75
2022/04/06 01:18:42;;;;;;;2.15;1.30;;;9.00;80.90;;;;;;5133445;27;20114;-75
2022/04/06 01:21:11;;;;;;;2.53;1.58;;;9.10;81.10;;;;;;5133488;28;20030;-75
2022/04/06 01:23:38;;;;;;;1.30;1.10;;;9.10;81.10;;;;;;5133243;28;20382;-75
2022/04/06 01:26:04;;;;;;;1.33;1.17;;;9.00;81.10;;;;;;5133354;28;20371;-75
2022/04/06 01:28:29;;;;;;;2.10;1.20;;;9.00;81.20;;;;;;5133335;28;20015;-75
2022/04/06 01:30:55;;;;;;;3.38;1.40;;;9.10;81.30;;;;;;5133231;28;20110;-75
2022/04/06 01:33:21;;;;;;;1.40;1.30;;;9.00;81.30;;;;;;5133288;28;20015;-75
2022/04/06 01:35:47;;;;;;;1.75;1.30;;;9.00;81.40;;;;;;5133171;28;20026;-75
2022/04/06 01:38:13;;;;;;;1.83;1.48;;;9.10;81.60;;;;;;5133250;28;20458;-75
2022/04/06 01:40:38;;;;;;;1.63;1.33;;;9.00;81.50;;;;;;5133166;28;20050;-75
2022/04/06 01:43:04;;;;;;;1.92;1.20;;;9.00;81.60;;;;;;5133018;28;20042;-75
2022/04/06 01:45:30;;;;;;;1.63;1.30;;;9.00;82.00;;;;;;5133304;28;20092;-76
2022/04/06 01:47:55;;;;;;;1.10;1.00;;;8.90;81.90;;;;;;5114594;28;20034;-75
2022/04/06 01:53:05;;;;;;;2.30;2.10;;;8.90;82.20;;;;;;5133224;28;20072;-75
2022/04/06 01:55:30;;;;;;;2.15;1.67;;;9.00;83.00;;;;;;5133376;28;20027;-76
2022/04/06 01:57:56;;;;;;;2.80;2.60;;;9.00;82.20;;;;;;5132914;27;20036;-75
2022/04/06 02:00:22;;;;;;;3.53;2.63;;;9.00;82.10;;;;;;5135800;27;20064;-74
2022/04/06 02:02:50;;;;;;;2.90;2.60;;;9.10;81.90;;;;;;5136911;27;20023;-73
2022/04/06 02:05:16;;;;;;;1.60;1.50;;;9.10;81.80;;;;;;5136925;27;20023;-74
2022/04/06 02:07:42;;;;;;;3.72;1.45;;;9.10;81.80;;;;;;5136942;27;20019;-74
2022/04/06 02:10:09;;;;;;;2.83;1.60;;;9.10;81.70;;;;;;5136830;27;20144;-75
2022/04/06 02:12:35;;;;;;;1.85;1.60;;;9.10;81.80;;;;;;5136918;27;20027;-73
2022/04/06 02:15:01;;;;;;;2.10;1.48;;;9.00;81.80;;;;;;5136799;27;20022;-74
2022/04/06 02:17:28;;;;;;;2.42;1.60;;;9.00;81.80;;;;;;5136530;27;20054;-74
2022/04/06 02:19:54;;;;;;;2.13;1.90;;;9.00;81.90;;;;;;5136741;27;20531;-76
2022/04/06 02:22:20;;;;;;;3.67;1.90;;;9.00;81.90;;;;;;5118183;27;20106;-74
2022/04/06 02:24:46;;;;;;;1.95;1.60;;;9.00;82.10;;;;;;5136459;27;20016;-75
2022/04/06 02:27:11;;;;;;;2.38;2.17;;;8.90;82.30;;;;;;5136581;27;20094;-74
2022/04/06 02:29:39;;;;;;;2.95;2.17;;;8.80;82.40;;;;;;5136494;27;20039;-74
2022/04/06 02:32:05;;;;;;;4.32;3.22;;;8.80;82.70;;;;;;5140156;27;20078;-73
2022/04/06 02:34:31;;;;;;;5.47;3.50;;;8.90;82.60;;;;;;5144850;27;20023;-73
2022/04/06 02:36:57;;;;;;;4.18;3.00;;;8.90;82.40;;;;;;5136859;27;20076;-74
2022/04/06 02:39:22;;;;;;;3.97;3.13;;;8.90;82.60;;;;;;5137108;27;20517;-75
2022/04/06 02:41:48;;;;;;;4.68;3.70;;;8.90;82.40;;;;;;5139038;27;20482;-74
2022/04/06 02:44:15;;;;;;;3.85;3.22;;;8.90;82.40;;;;;;5137660;27;20019;-74
2022/04/06 02:46:41;;;;;;;3.17;2.65;;;8.90;82.70;;;;;;5136706;27;20379;-75
2022/04/06 02:49:06;;;;;;;4.15;3.28;;;8.90;82.60;;;;;;5136676;27;20019;-74
2022/04/06 02:51:32;;;;;;;3.75;3.08;;;8.90;82.40;;;;;;5136629;27;20035;-74
2022/04/06 02:53:58;;;;;;;5.85;3.55;;;9.00;82.20;;;;;;5136475;27;20106;-74
2022/04/06 02:56:23;;;;;;;4.10;3.35;;;9.00;82.00;;;;;;5136404;27;20031;-74
2022/04/06 02:58:49;;;;;;;3.45;3.00;;;9.00;82.10;;;;;;5136393;27;20026;-75
2022/04/06 03:01:15;;;;;;;5.15;3.38;;;9.00;82.00;;;;;;5136314;27;20019;-75
2022/04/06 03:03:40;;;;;;;4.22;3.45;;;9.00;82.00;;;;;;5136358;27;20024;-75
2022/04/06 03:06:07;;;;;;;4.38;3.15;;;9.10;82.00;;;;;;5136263;27;20020;-75
2022/04/06 03:08:33;;;;;;;4.13;3.47;;;9.10;82.00;;;;;;5136272;27;20050;-74
2022/04/06 03:10:59;;;;;;;7.43;3.90;;;9.10;82.00;;;;;;5136027;27;20038;-75
2022/04/06 03:13:25;;;;;;;5.28;3.65;;;9.00;82.30;;;;;;5136155;27;20522;-76
2022/04/06 03:15:51;;;;;;;5.03;4.03;;;9.00;82.40;;;;;;5136035;27;20062;-75
2022/04/06 03:18:17;;;;;;;4.40;3.50;;;8.90;82.60;;;;;;5135976;27;20056;-77
2022/04/06 03:20:42;;;;;;;3.55;3.25;;;8.90;82.70;;;;;;5136135;27;20119;-76
2022/04/06 03:23:08;;;;;;;4.93;3.55;;;8.90;82.70;;;;;;5136028;27;20033;-75
2022/04/06 03:25:34;;;;;;;3.85;3.35;;;8.90;82.70;;;;;;5135976;27;20020;-76
2022/04/06 03:28:00;;;;;;;3.50;2.85;;;8.90;82.70;;;;;;5135960;27;20494;-75
2022/04/06 03:30:26;;;;;;;3.50;3.20;;;8.90;82.70;;;;;;5135935;27;20098;-77
2022/04/06 03:32:52;;;;;;;3.35;3.05;;;8.90;82.70;;;;;;5117565;27;20455;-75
2022/04/06 03:35:17;;;;;;;4.30;3.33;;;8.90;82.70;;;;;;5135761;27;20524;-75
2022/04/06 03:37:43;;;;;;;3.90;3.00;;;8.90;82.60;;;;;;5135586;27;20043;-76
2022/04/06 03:40:10;;;;;;;2.90;2.50;;;8.90;82.50;;;;;;5135633;27;20045;-76
2022/04/06 03:42:35;;;;;;;3.55;3.08;;;9.00;82.60;;;;;;5135643;27;20023;-77
2022/04/06 03:45:02;;;;;;;3.83;2.83;;;9.00;82.50;;;;;;5135674;27;20072;-77
2022/04/06 03:47:29;;;;;;;4.93;3.08;;;8.90;82.40;;;;;;5135681;27;20072;-77
2022/04/06 03:49:55;;;;;;;4.82;2.58;;;8.90;82.40;;;;;;5135531;27;20019;-76
2022/04/06 03:52:21;;;;;;;5.60;2.65;;;8.90;82.60;;;;;;5135573;27;20083;-76
2022/04/06 03:54:46;;;;;;;4.63;2.88;;;8.90;82.60;;;;;;5135341;27;20031;-77
2022/04/06 03:57:13;;;;;;;4.00;3.05;;;8.90;82.60;;;;;;5135349;27;20034;-76
2022/04/06 03:59:39;;;;;;;3.60;2.60;;;8.80;82.50;;;;;;5135496;27;20011;-77
2022/04/06 04:02:05;;;;;;;3.88;2.22;;;8.80;82.60;;;;;;5135247;27;20156;-75
2022/04/06 04:04:30;;;;;;;3.47;2.10;;;8.80;82.70;;;;;;5117216;27;20460;-77
2022/04/06 04:06:56;;;;;;;2.03;1.80;;;8.70;83.00;;;;;;5117189;27;20023;-77
2022/04/06 04:09:21;;;;;;;5.22;3.28;;;8.80;83.10;;;;;;5117217;27;20425;-77
2022/04/06 04:11:47;;;;;;;3.72;2.50;;;8.70;83.00;;;;;;5116819;27;20043;-77
2022/04/06 04:14:14;;;;;;;2.45;2.08;;;8.70;83.20;;;;;;5116982;27;20035;-77
2022/04/06 04:16:39;;;;;;;3.15;2.10;;;8.70;83.50;;;;;;5116178;27;20471;-77
2022/04/06 04:19:05;;;;;;;3.00;2.00;;;8.70;83.60;;;;;;5116515;27;20038;-77
2022/04/06 04:21:33;;;;;;;3.47;1.92;;;8.70;83.60;;;;;;5116058;28;20047;-77
2022/04/06 04:24:03;;;;;;;3.45;2.58;;;8.70;83.60;;;;;;5116348;27;20035;-77
2022/04/06 04:26:29;;;;;;;4.60;3.28;;;8.60;83.60;;;;;;5116464;27;20019;-77
2022/04/06 04:28:55;;;;;;;3.90;3.28;;;8.60;84.20;;;;;;5116790;27;20027;-77
2022/04/06 04:31:21;;;;;;;3.60;3.08;;;8.70;84.30;;;;;;5116377;27;20422;-76
2022/04/06 04:33:47;;;;;;;3.60;2.70;;;8.70;84.70;;;;;;5116137;27;20483;-77
2022/04/06 04:36:12;;;;;;;3.95;3.13;;;8.80;83.60;;;;;;5117861;27;20062;-78
2022/04/06 04:38:38;;;;;;;3.08;2.75;;;8.80;83.40;;;;;;5134851;27;20042;-76
2022/04/06 04:41:07;;;;;;;3.17;2.83;;;8.80;83.30;;;;;;5116340;27;20019;-76
2022/04/06 04:43:33;;;;;;;4.90;2.97;;;8.90;83.00;;;;;;5116688;27;20034;-76
2022/04/06 04:45:59;;;;;;;3.78;2.90;;;8.90;82.80;;;;;;5116159;27;20050;-77
2022/04/06 04:48:24;;;;;;;4.68;2.90;;;8.90;82.90;;;;;;5115669;27;20019;-77
2022/04/06 04:50:50;;;;;;;4.57;3.00;;;8.90;82.90;;;;;;5116105;27;20081;-77
2022/04/06 04:53:15;;;;;;;4.32;3.17;;;9.00;82.80;;;;;;5134436;27;20374;-77
2022/04/06 04:55:42;;;;;;;4.25;2.78;;;8.90;83.00;;;;;;5134294;27;20431;-77
2022/04/06 04:58:07;;;;;;;4.05;3.03;;;9.00;82.80;;;;;;5115506;27;20130;-77
2022/04/06 05:00:33;;;;;;;5.47;2.80;;;9.00;82.70;;;;;;5116064;27;20055;-77
2022/04/06 05:02:59;;;;;;;6.55;2.90;;;9.00;82.80;;;;;;5115849;27;20034;-76
2022/04/06 05:05:25;;;;;;;6.32;4.65;;;9.00;82.60;;;;;;5115914;27;20451;-77
2022/04/06 05:07:51;;;;;;;5.03;2.88;;;9.00;82.60;;;;;;5115546;28;20030;-76
2022/04/06 05:10:17;;;;;;;3.85;2.92;;;9.00;82.30;;;;;;5134271;27;20023;-77
2022/04/06 05:12:45;;;;;;;6.97;3.63;;;9.10;82.40;;;;;;5115939;27;20031;-77
2022/04/06 05:15:12;;;;;;;5.00;3.28;;;9.10;82.50;;;;;;5115673;28;20019;-76
2022/04/06 05:17:38;;;;;;;3.35;2.97;;;9.00;82.40;;;;;;5115918;27;20504;-77
2022/04/06 05:20:06;;;;;;;3.38;3.05;;;9.00;82.60;;;;;;5115805;28;20110;-77
2022/04/06 05:22:32;;;;;;;3.55;3.05;;;9.00;82.70;;;;;;5115038;28;20068;-77
2022/04/06 05:24:58;;;;;;;4.88;3.15;;;9.00;82.80;;;;;;5114864;28;20383;-76
2022/04/06 05:27:24;;;;;;;3.95;3.22;;;9.00;82.60;;;;;;5115609;28;20021;-76
2022/04/06 05:29:50;;;;;;;4.55;3.00;;;9.00;82.60;;;;;;5114026;28;20035;-77
2022/04/06 05:32:15;;;;;;;4.75;3.17;;;9.00;82.70;;;;;;5115106;28;20077;-77
2022/04/06 05:34:41;;;;;;;4.00;2.80;;;9.00;82.50;;;;;;5118724;27;20111;-77
2022/04/06 05:37:07;;;;;;;6.53;2.95;;;9.00;83.10;;;;;;5119523;27;20068;-75
2022/04/06 05:39:32;;;;;;;4.25;2.50;;;9.10;82.10;;;;;;5119608;27;20031;-75
2022/04/06 05:41:58;;;;;;;2.10;1.90;;;9.10;81.40;;;;;;5119518;27;20122;-81
2022/04/06 05:44:23;;;;;;;2.85;1.88;;;9.20;80.80;;;;;;5119773;27;20030;-82
2022/04/06 05:46:49;;;;;;;2.95;1.83;;;9.20;80.30;;;;;;5119571;27;20068;-82
2022/04/06 05:49:15;;;;;;;2.40;1.67;;;9.30;80.40;;;;;;5119897;27;20021;-76
2022/04/06 05:51:40;;;;;;;7.95;2.42;;;9.40;80.10;;;;;;5119221;27;20113;-76
2022/04/06 05:54:06;;;;;;;9.50;4.20;;;9.50;79.60;;;;;;5119232;27;20114;-74
2022/04/06 05:56:32;;;;;;;4.20;2.10;;;9.60;79.00;;;;;;5119548;27;20135;-79
2022/04/06 05:58:58;;;;;;;1.42;1.33;;;9.80;78.50;;;;;;5119151;27;20491;-77
2022/04/06 06:01:23;;;;;;;2.72;1.75;;;9.70;78.20;;;;;;5119162;27;20030;-77
2022/04/06 06:03:49;;;;;;;1.95;1.50;;;9.80;78.30;;;;;;5119153;27;20020;-80
2022/04/06 06:06:15;;;;;;;6.75;1.92;;;9.90;77.10;;;;;;5119715;27;20041;-81
2022/04/06 06:08:41;;;;;;;4.70;1.63;;;10.00;77.30;;;;;;5119532;27;20504;-77
2022/04/06 06:11:08;;;;;;;1.95;1.13;;;10.10;76.80;;;;;;5119461;27;20383;-74
2022/04/06 06:13:33;;;;;;;3.13;2.25;;;10.10;76.20;;;;;;5119252;27;20045;-74
2022/04/06 06:16:02;;;;;;;2.20;1.50;;;10.10;76.50;;;;;;5118728;27;20467;-76
2022/04/06 06:18:28;;;;;;;2.55;1.42;;;10.20;77.20;;;;;;5119080;27;20059;-76
2022/04/06 06:20:56;;;;;;;2.15;1.33;;;10.20;76.10;;;;;;5118608;27;20402;-74
2022/04/06 06:23:21;;;;;;;2.13;1.33;;;10.30;76.60;;;;;;5118665;27;20076;-78
2022/04/06 06:25:47;;;;;;;4.45;1.02;;;10.50;75.30;;;;;;5137079;27;20027;-78
2022/04/06 06:28:12;;;;;;;1.95;1.05;;;10.50;75.60;;;;;;5118327;27;20019;-79
2022/04/06 06:30:38;;;;;;;2.42;1.30;;;10.40;75.80;;;;;;5136939;27;20046;-76
2022/04/06 06:33:04;;;;;;;1.58;1.20;;;10.30;75.50;;;;;;5137304;27;20019;-82
2022/04/06 06:35:29;;;;;;;1.42;1.13;;;10.30;75.60;;;;;;5119049;27;20080;-82
2022/04/06 06:37:56;;;;;;;1.38;1.20;;;10.20;75.90;;;;;;5118979;27;20056;-82
2022/04/06 06:40:24;;;;;;;3.17;0.90;;;10.20;76.00;;;;;;5118734;27;20605;-82
2022/04/06 06:42:52;;;;;;;1.30;0.95;;;10.10;76.50;;;;;;5101871;27;20038;-83
2022/04/06 06:45:18;;;;;;;2.45;1.90;;;10.10;76.20;;;;;;5117304;27;20467;-78
2022/04/06 06:47:45;;;;;;;1.10;1.00;;;10.10;75.80;;;;;;5118139;27;20468;-78
2022/04/06 06:50:13;;;;;;;1.73;1.30;;;10.00;75.50;;;;;;5118939;27;20015;-78
2022/04/06 06:52:39;;;;;;;2.90;1.00;;;10.10;76.50;;;;;;5137035;27;20094;-78
2022/04/06 06:55:07;;;;;;;1.63;1.48;;;10.00;76.70;;;;;;5136442;27;20053;-78
2022/04/06 06:57:34;;;;;;;3.22;2.08;;;10.00;77.60;;;;;;5118028;27;20062;-78
2022/04/06 06:59:59;;;;;;;2.30;1.20;;;10.00;77.10;;;;;;5118262;27;20388;-79
2022/04/06 07:02:25;;;;;;;1.10;0.98;;;10.00;76.70;;;;;;5117836;27;20029;-79
2022/04/06 07:04:51;;;;;;;3.28;1.02;;;10.10;76.60;;;;;;5137135;27;20162;-78
2022/04/06 07:07:16;;;;;;;1.60;1.20;;;10.10;76.40;;;;;;5126891;27;20027;-78
2022/04/06 07:09:42;;;;;;;1.17;0.80;;;10.10;76.20;;;;;;5137303;27;20546;-78
2022/04/06 07:12:08;;;;;;;2.15;0.80;;;10.10;76.00;;;;;;5118974;27;20483;-78
2022/04/06 07:14:35;;;;;;;0.95;0.85;;;10.00;75.90;;;;;;5118165;27;20046;-78
2022/04/06 07:17:00;;;;;;;1.38;0.90;;;10.10;75.90;;;;;;5118474;27;20112;-78
2022/04/06 07:19:26;;;;;;;3.88;1.30;;;10.20;74.80;;;;;;5117644;27;20522;-79
2022/04/06 07:21:52;;;;;;;1.85;1.00;;;10.30;74.60;;;;;;5117437;27;20110;-77
2022/04/06 07:24:18;;;;;;;1.42;0.60;;;10.30;74.60;;;;;;5117733;27;20022;-77
2022/04/06 07:26:44;;;;;;;1.75;0.88;;;10.30;74.20;;;;;;5117910;27;20118;-78
2022/04/06 07:29:13;;;;;;;0.88;0.70;;;10.30;74.30;;;;;;5118347;27;20454;-77
2022/04/06 07:31:40;;;;;;;0.63;0.43;;;10.40;74.30;;;;;;5121013;27;20076;-78
2022/04/06 07:34:06;;;;;;;1.98;1.05;;;10.40;74.30;;;;;;5117773;27;20030;-78
2022/04/06 07:36:35;;;;;;;4.07;1.02;;;10.50;74.00;;;;;;5117435;27;20417;-77
2022/04/06 07:39:02;;;;;;;2.38;1.08;;;10.40;74.30;;;;;;5117492;27;20038;-79
2022/04/06 07:41:28;;;;;;;2.53;1.08;;;10.40;74.60;;;;;;5117605;27;20105;-78
2022/04/06 07:43:54;;;;;;;1.58;0.85;;;10.30;75.00;;;;;;5117650;27;20446;-78
2022/04/06 07:46:20;;;;;;;4.57;1.00;;;10.30;75.40;;;;;;5117259;27;20044;-78
2022/04/06 07:48:46;;;;;;;4.15;0.85;;;10.30;75.20;;;;;;5117892;27;20075;-79
2022/04/06 07:51:12;;;;;;;5.15;0.65;;;10.30;75.70;;;;;;5117383;27;20467;-79
2022/04/06 07:53:37;;;;;;;1.17;0.85;;;10.40;74.60;;;;;;5117361;27;20034;-79
2022/04/06 07:56:05;;;;;;;0.73;0.60;;;10.50;74.50;;;;;;5135368;27;20019;-79
2022/04/06 07:58:30;;;;;;;1.27;0.70;;;10.50;73.90;;;;;;5117231;27;20057;-79
2022/04/06 08:00:56;;;;;;;1.95;0.70;;;10.50;73.90;;;;;;5100341;27;20048;-79
2022/04/06 08:03:22;;;;;;;2.90;0.90;;;10.50;73.80;;;;;;5116885;27;20023;-78
2022/04/06 08:05:47;;;;;;;0.65;0.40;;;10.50;74.00;;;;;;5135408;27;20518;-77
2022/04/06 08:08:13;;;;;;;0.60;0.60;;;10.50;73.50;;;;;;5116839;27;20027;-79
2022/04/06 08:10:38;;;;;;;1.20;0.52;;;10.70;73.20;;;;;;5135177;27;20047;-78
2022/04/06 08:13:05;;;;;;;1.23;0.60;;;10.70;73.00;;;;;;5134825;27;20374;-78
2022/04/06 08:15:30;;;;;;;2.95;0.50;;;10.60;73.30;;;;;;5117059;27;20076;-78
2022/04/06 08:17:56;;;;;;;2.00;0.63;;;10.70;73.20;;;;;;5116709;27;20055;-79
2022/04/06 08:20:22;;;;;;;0.50;0.40;;;10.70;73.80;;;;;;5116459;27;20107;-79
2022/04/06 08:22:50;;;;;;;0.77;0.40;;;10.80;72.70;;;;;;5116264;27;20129;-77
2022/04/06 08:25:16;;;;;;;4.25;0.60;;;10.80;72.30;;;;;;5116498;27;20080;-78
2022/04/06 08:27:42;;;;;;;0.95;0.77;;;10.90;72.80;;;;;;5116424;27;20375;-77
2022/04/06 08:30:09;;;;;;;1.60;0.40;;;11.00;72.60;;;;;;5116695;27;20031;-77
2022/04/06 08:32:35;;;;;;;0.68;0.40;;;11.10;72.60;;;;;;5116243;27;20023;-77
2022/04/06 08:35:01;;;;;;;0.55;0.40;;;11.20;71.90;;;;;;5099201;27;20034;-78
2022/04/06 08:37:29;;;;;;;1.45;0.55;;;11.20;72.00;;;;;;5115867;27;20020;-77
2022/04/06 08:39:55;;;;;;;1.75;0.57;;;11.30;71.80;;;;;;5116036;27;20119;-78
2022/04/06 08:42:22;;;;;;;0.73;0.50;;;11.30;71.40;;;;;;5116030;27;20023;-78
2022/04/06 08:44:47;;;;;;;3.72;0.57;;;11.40;70.80;;;;;;5116371;27;20110;-77
2022/04/06 08:47:13;;;;;;;0.20;0.20;;;11.30;71.20;;;;;;5116294;28;20117;-79
2022/04/06 08:49:41;;;;;;;3.03;0.65;;;11.20;70.70;;;;;;5115746;27;20028;-77
2022/04/06 08:52:09;;;;;;;1.63;0.80;;;11.20;71.30;;;;;;5116092;27;20037;-79
2022/04/06 08:54:35;;;;;;;0.77;0.50;;;11.30;71.30;;;;;;5115739;27;20019;-77
2022/04/06 08:57:03;;;;;;;0.40;0.22;;;11.40;70.60;;;;;;5134534;27;20376;-77
2022/04/06 08:59:30;;;;;;;1.52;0.55;;;11.40;70.30;;;;;;5116065;27;20019;-78
2022/04/06 09:01:56;;;;;;;2.05;0.50;;;11.50;71.20;;;;;;5115716;27;20019;-78
2022/04/06 09:04:24;;;;;;;2.38;0.57;;;11.60;71.20;;;;;;5115768;27;20030;-78
2022/04/06 09:06:50;;;;;;;2.10;0.50;;;11.60;71.00;;;;;;5115753;27;20482;-78
2022/04/06 09:09:26;;;;;;;0.57;0.50;;;11.50;70.50;;;;;;5115638;27;20072;-78
2022/04/06 09:11:52;;;;;;;2.85;0.50;;;11.60;70.60;;;;;;5115856;27;20497;-78
2022/04/06 09:14:32;;;;;;;0.30;0.30;;;11.60;69.40;;;;;;5115664;28;20019;-79
2022/04/06 09:17:05;;;;;;;0.80;0.30;;;11.60;69.10;;;;;;5111552;28;20383;-77
2022/04/06 09:19:37;;;;;;;0.80;0.30;;;11.80;68.40;;;;;;5112203;28;20071;-78
2022/04/06 09:22:07;;;;;;;0.63;0.25;;;11.90;68.10;;;;;;5112136;28;20024;-78
2022/04/06 09:24:32;;;;;;;0.43;0.30;;;12.10;67.50;;;;;;5112177;28;20475;-79
2022/04/06 09:27:00;;;;;;;1.17;0.50;;;12.20;67.90;;;;;;5111874;28;20031;-79
2022/04/06 09:29:26;;;;;;;1.10;0.60;;;12.40;67.20;;;;;;5112220;28;20020;-79
2022/04/06 09:31:52;;;;;;;2.08;0.40;;;12.50;66.70;;;;;;5095239;28;20030;-79
2022/04/06 09:34:22;;;;;;;3.53;1.10;;;12.60;66.00;;;;;;5095615;28;20055;-79
2022/04/06 09:36:59;;;;;;;0.22;0.20;;;12.70;65.10;;;;;;5112285;28;20483;-79
2022/04/06 09:39:48;;;;;;;3.17;0.50;;;12.50;66.00;;;;;;5133886;28;20031;-79
2022/04/06 09:42:26;;;;;;;1.58;0.40;;;12.40;66.50;;;;;;5116596;28;20087;-79
2022/04/06 09:47:51;;;;;;;3.75;0.25;;;12.80;65.50;;;;;;5135298;28;20045;-79
2022/04/06 09:50:19;;;;;;;0.40;0.20;;;13.00;64.90;;;;;;5101031;28;20063;-79
2022/04/06 09:52:46;;;;;;;0.43;0.30;;;13.20;63.00;;;;;;5112004;28;20024;-78
2022/04/06 09:55:14;;;;;;;4.95;2.92;;;13.40;62.40;;;;;;5112247;28;20024;-79
2022/04/06 09:57:56;;;;;;;1.40;0.60;;;13.50;62.50;;;;;;5111747;28;20024;-79
2022/04/06 10:00:24;;;;;;;2.22;0.30;;;13.50;61.70;;;;;;5097098;28;20035;-80
2022/04/06 10:03:05;;;;;;;0.68;0.20;;;13.00;62.40;;;;;;5111612;28;20020;-79
2022/04/06 10:05:33;;;;;;;2.55;0.13;;;13.00;63.50;;;;;;5112913;28;20034;-79
2022/04/06 10:08:04;;;;;;;0.10;0.10;;;13.10;62.60;;;;;;5111896;28;20051;-79
2022/04/06 10:10:31;;;;;;;4.55;0.38;;;13.20;62.30;;;;;;5112154;28;20548;-78
2022/04/06 10:12:57;;;;;;;0.57;0.20;;;13.40;61.10;;;;;;5112382;28;20486;-78
2022/04/06 10:15:25;;;;;;;0.40;0.30;;;13.50;60.40;;;;;;5115172;28;20023;-79
2022/04/06 10:17:50;;;;;;;0.20;0.20;;;13.80;59.30;;;;;;5135767;27;20063;-78
2022/04/06 10:20:35;;;;;;;1.65;0.13;;;13.80;59.90;;;;;;5137217;28;20032;-78
2022/04/06 10:23:10;;;;;;;0.10;0.10;;;14.10;58.70;;;;;;5140024;28;20015;-79
2022/04/06 10:25:59;;;;;;;0.00;0.00;;;14.10;58.00;;;;;;5139648;27;20020;-80
2022/04/06 10:28:24;;;;;;;2.88;0.32;;;14.10;58.30;;;;;;5124457;28;20059;-78
2022/04/06 10:31:12;;;;;;;2.83;0.55;;;14.30;58.80;;;;;;5118392;28;20031;-79
2022/04/06 10:33:38;;;;;;;1.65;0.40;;;14.40;56.60;;;;;;5118101;28;20043;-78
2022/04/06 10:36:28;;;;;;;0.20;0.10;;;14.30;56.80;;;;;;5118555;28;20047;-79
2022/04/06 10:39:10;;;;;;;0.40;0.30;;;14.40;56.50;;;;;;5116494;28;20036;-79
2022/04/06 10:41:41;;;;;;;1.95;0.30;;;14.40;56.30;;;;;;5115061;28;20028;-80
2022/04/06 10:44:26;;;;;;;0.52;0.20;;;14.50;56.10;;;;;;5115496;28;20027;-78
2022/04/06 10:47:04;;;;;;;0.32;0.25;;;14.70;55.90;;;;;;5114769;28;20042;-78
2022/04/06 10:49:30;;;;;;;1.17;0.30;;;14.90;54.80;;;;;;5116229;28;20144;-78
2022/04/06 10:51:58;;;;;;;1.20;0.30;;;15.20;53.50;;;;;;5114938;28;20447;-79
2022/04/06 10:54:27;;;;;;;3.63;0.40;;;15.10;51.00;;;;;;5114371;28;20027;-79
2022/04/06 10:56:55;;;;;;;0.32;0.22;;;15.10;50.90;;;;;;5114678;28;20426;-77
2022/04/06 10:59:28;;;;;;;0.40;0.20;;;15.20;49.40;;;;;;5114427;28;20115;-76
2022/04/06 11:02:19;;;;;;;1.85;0.22;;;15.50;49.10;;;;;;5114199;28;20034;-78
2022/04/06 11:04:46;;;;;;;1.05;0.10;;;15.70;48.20;;;;;;5114161;28;20353;-78
2022/04/06 11:07:15;;;;;;;0.15;0.13;;;15.60;47.50;;;;;;5114430;28;20027;-78
2022/04/06 11:12:32;;;;;;;0.85;0.15;;;15.40;49.40;;;;;;5115927;28;20034;-78
2022/04/06 11:15:01;;;;;;;0.60;0.40;;;15.60;48.00;;;;;;5114560;28;20094;-78
2022/04/06 11:17:30;;;;;;;0.75;0.15;;;15.70;48.40;;;;;;5114031;28;20079;-78
2022/04/06 11:19:56;;;;;;;0.47;0.20;;;16.20;45.30;;;;;;5114260;28;20123;-77
2022/04/06 11:22:22;;;;;;;0.82;0.10;;;16.30;44.30;;;;;;5115573;28;20078;-77
2022/04/06 11:24:48;;;;;;;0.57;0.30;;;16.30;43.80;;;;;;5114280;28;20027;-78
2022/04/06 11:27:28;;;;;;;1.77;0.20;;;16.10;43.60;;;;;;5114413;28;20031;-79
2022/04/06 11:30:05;;;;;;;0.45;0.22;;;16.10;44.20;;;;;;5114642;28;20027;-78
2022/04/06 11:32:31;;;;;;;0.75;0.10;;;16.10;45.10;;;;;;5113944;28;20016;-78
2022/04/06 11:35:02;;;;;;;0.13;0.05;;;16.10;43.80;;;;;;5114381;28;20024;-78
2022/04/06 11:37:30;;;;;;;0.57;0.20;;;16.10;42.90;;;;;;5114076;28;20035;-79
2022/04/06 11:40:01;;;;;;;0.10;0.10;;;15.90;43.40;;;;;;5114108;28;20114;-77
2022/04/06 11:42:27;;;;;;;0.38;0.00;;;16.00;42.30;;;;;;5114237;28;20062;-79
2022/04/06 11:44:54;;;;;;;0.43;0.20;;;16.20;43.00;;;;;;5115209;28;20030;-79
2022/04/06 11:47:37;;;;;;;1.02;0.22;;;16.20;43.30;;;;;;5114004;28;20031;-79
2022/04/06 11:50:10;;;;;;;0.65;0.10;;;16.20;43.70;;;;;;5115383;28;20548;-80
2022/04/06 11:52:40;;;;;;;1.10;0.20;;;16.40;42.90;;;;;;5114423;28;20132;-80
2022/04/06 11:55:07;;;;;;;0.45;0.20;;;16.60;41.40;;;;;;5114234;28;20028;-79
2022/04/06 11:57:35;;;;;;;0.28;0.10;;;16.60;42.00;;;;;;5115067;28;20028;-80
2022/04/06 12:00:06;;;;;;;0.73;0.17;;;16.70;42.20;;;;;;5115924;28;20031;-79
2022/04/06 12:02:52;;;;;;;0.80;0.30;;;16.70;43.30;;;;;;5114516;28;20020;-80
2022/04/06 12:05:26;;;;;;;1.80;0.15;;;16.60;42.70;;;;;;5115701;28;20036;-79
2022/04/06 12:08:12;;;;;;;1.95;0.28;;;16.30;42.50;;;;;;5114361;28;20023;-79
2022/04/06 12:10:56;;;;;;;0.38;0.20;;;16.40;43.40;;;;;;5124654;27;20030;-79
2022/04/06 12:13:23;;;;;;;1.27;0.30;;;16.50;46.20;;;;;;5120005;28;20164;-79
2022/04/06 12:15:49;;;;;;;1.17;0.43;;;16.90;46.00;;;;;;5080171;27;20034;-80
2022/04/06 12:18:19;;;;;;;1.05;0.30;;;17.20;45.70;;;;;;5116220;27;20031;-78
2022/04/06 12:20:47;;;;;;;0.20;0.20;;;17.40;43.50;;;;;;5134684;27;20030;-79
2022/04/06 12:23:14;;;;;;;0.82;0.63;;;17.30;42.80;;;;;;5116173;27;20031;-78
2022/04/06 12:25:40;;;;;;;0.40;0.35;;;17.50;43.80;;;;;;5116615;27;20015;-78
2022/04/06 12:28:13;;;;;;;2.78;0.30;;;17.50;43.20;;;;;;5134543;27;20371;-78
2022/04/06 12:31:07;;;;;;;1.13;0.20;;;17.20;43.00;;;;;;5116260;27;20019;-78
2022/04/06 12:33:39;;;;;;;1.50;0.40;;;17.40;43.10;;;;;;5116284;27;20372;-78
2022/04/06 12:39:28;;;;;;;0.98;0.38;;;17.30;44.00;;;;;;5129343;27;20087;-78
2022/04/06 12:42:05;;;;;;;1.58;0.50;;;17.30;43.70;;;;;;5115750;27;20467;-78
2022/04/06 12:44:33;;;;;;;0.17;0.17;;;17.10;44.70;;;;;;5115372;27;20019;-80
2022/04/06 12:46:59;;;;;;;1.27;0.30;;;16.90;44.00;;;;;;5115765;27;20048;-78
2022/04/06 12:49:36;;;;;;;1.27;0.40;;;16.50;44.80;;;;;;5115770;27;20015;-78
2022/04/06 12:52:21;;;;;;;0.90;0.20;;;16.40;46.20;;;;;;5115379;27;20479;-77
2022/04/06 12:54:50;;;;;;;0.80;0.40;;;16.10;46.00;;;;;;5115468;27;20015;-77
2022/04/06 12:57:28;;;;;;;1.38;0.30;;;15.90;47.10;;;;;;5115601;28;20077;-77
2022/04/06 13:00:13;;;;;;;0.32;0.30;;;16.00;47.10;;;;;;5115534;27;20027;-77
2022/04/06 13:02:49;;;;;;;0.52;0.20;;;16.20;47.30;;;;;;5115797;27;20374;-77
2022/04/06 13:05:20;;;;;;;0.40;0.35;;;16.10;47.20;;;;;;5098504;27;20027;-77
2022/04/06 13:07:47;;;;;;;2.13;0.55;;;16.00;46.30;;;;;;5115322;27;20023;-78